Time;durP1;ratioP1;P1;durP2;ratioP2;P2;SDS_P1;SDS_P2;PMS_P1;PMS_P2;Temp;Humidity;BMP_temperature;BMP_pressure;BME280_temperature;BME280_humidity;BME280_pressure;Samples;Min_cycle;Max_cycle;Signal;HPM_P1;HPM_P2
2023/06/06 00:01:51;;;;;;;20.90;9.68;;;;;;;13.74;100.00;101995.50;5227002;28;20028;-69
2023/06/06 00:04:22;;;;;;;25.05;9.82;;;;;;;13.71;100.00;101995.84;5246265;28;20082;-69
2023/06/06 00:06:52;;;;;;;19.10;9.73;;;;;;;13.64;100.00;101994.78;5245292;28;20119;-69
2023/06/06 00:09:23;;;;;;;24.00;10.35;;;;;;;13.62;100.00;101993.25;5246189;28;20448;-69
2023/06/06 00:11:56;;;;;;;22.65;8.98;;;;;;;13.59;100.00;101994.41;5232252;28;20421;-69
2023/06/06 00:14:30;;;;;;;21.23;8.75;;;;;;;13.56;100.00;101989.34;5234196;28;20098;-69
2023/06/06 00:17:01;;;;;;;25.63;9.98;;;;;;;13.58;100.00;101987.31;5226153;28;20024;-69
2023/06/06 00:19:32;;;;;;;20.20;9.90;;;;;;;13.57;100.00;101980.25;5226255;28;20029;-69
2023/06/06 00:22:03;;;;;;;19.33;9.45;;;;;;;13.54;100.00;101985.09;5231274;28;20021;-68
2023/06/06 00:24:33;;;;;;;19.75;8.70;;;;;;;13.51;100.00;101980.03;5243238;28;20035;-69
2023/06/06 00:27:04;;;;;;;19.52;8.60;;;;;;;13.47;100.00;101983.03;5233964;28;20021;-69
2023/06/06 00:29:35;;;;;;;20.77;9.77;;;;;;;13.42;100.00;101982.66;5245320;28;20028;-69
2023/06/06 00:32:06;;;;;;;21.65;9.88;;;;;;;13.41;100.00;101980.13;5245628;28;20021;-69
2023/06/06 00:34:36;;;;;;;20.48;10.05;;;;;;;13.34;100.00;101981.75;5240773;28;20560;-69
2023/06/06 00:37:07;;;;;;;26.02;10.00;;;;;;;13.28;100.00;101985.91;5236376;28;20031;-69
2023/06/06 00:39:37;;;;;;;21.77;9.70;;;;;;;13.24;100.00;101976.44;5239133;28;20394;-69
2023/06/06 00:42:08;;;;;;;21.15;9.85;;;;;;;13.21;100.00;101984.84;5237853;28;20032;-69
2023/06/06 00:44:38;;;;;;;24.00;10.80;;;;;;;13.18;100.00;101991.38;5245521;28;20504;-69
2023/06/06 00:47:11;;;;;;;22.23;9.65;;;;;;;13.15;100.00;101983.63;5232984;28;20020;-69
2023/06/06 00:49:44;;;;;;;21.48;10.00;;;;;;;13.14;100.00;101981.91;5227553;28;20116;-69
2023/06/06 00:52:16;;;;;;;23.02;9.85;;;;;;;13.15;100.00;101986.31;5244978;28;20023;-69
2023/06/06 00:54:48;;;;;;;22.27;9.85;;;;;;;13.08;100.00;101978.97;5244998;28;20554;-69
2023/06/06 00:57:20;;;;;;;22.63;9.88;;;;;;;13.06;100.00;101979.16;5244336;28;20024;-69
2023/06/06 00:59:50;;;;;;;25.70;9.85;;;;;;;13.05;100.00;101976.59;5245347;28;20545;-69
2023/06/06 01:02:24;;;;;;;27.92;10.18;;;;;;;13.06;100.00;101984.53;5245486;28;20111;-69
2023/06/06 01:04:57;;;;;;;21.55;11.02;;;;;;;13.00;100.00;101989.69;5244718;28;20093;-69
2023/06/06 01:07:29;;;;;;;24.52;10.23;;;;;;;12.94;100.00;101985.75;5244614;28;20038;-69
2023/06/06 01:09:59;;;;;;;21.70;10.63;;;;;;;12.92;100.00;101988.63;5242060;28;20027;-69
2023/06/06 01:12:43;;;;;;;22.63;10.70;;;;;;;12.89;100.00;101980.81;5234252;28;20024;-69
2023/06/06 01:15:19;;;;;;;21.38;10.43;;;;;;;12.86;100.00;101970.38;5244592;28;20029;-69
2023/06/06 01:17:50;;;;;;;20.55;9.95;;;;;;;12.80;100.00;101973.69;5243997;28;20394;-69
2023/06/06 01:20:23;;;;;;;22.17;9.60;;;;;;;12.81;100.00;101978.06;5241995;28;20035;-68
2023/06/06 01:22:56;;;;;;;19.70;9.55;;;;;;;12.78;100.00;101972.97;5233410;28;20017;-69
2023/06/06 01:25:27;;;;;;;19.80;9.50;;;;;;;12.77;100.00;101971.28;5244184;28;20088;-69
2023/06/06 01:27:58;;;;;;;20.65;9.30;;;;;;;12.74;100.00;101973.44;5243530;28;20482;-69
2023/06/06 01:30:28;;;;;;;24.30;10.30;;;;;;;12.69;100.00;101966.66;5244831;28;20025;-69
2023/06/06 01:33:03;;;;;;;23.70;10.73;;;;;;;12.66;100.00;101972.38;5244319;28;20050;-69
2023/06/06 01:35:38;;;;;;;23.80;10.98;;;;;;;12.65;100.00;101965.31;5244470;28;20036;-69
2023/06/06 01:38:18;;;;;;;19.70;10.07;;;;;;;12.60;100.00;101970.28;5236347;28;20037;-69
2023/06/06 01:40:52;;;;;;;22.48;9.93;;;;;;;12.56;100.00;101968.06;5239767;28;20074;-69
2023/06/06 01:43:26;;;;;;;22.52;9.95;;;;;;;12.49;100.00;101967.78;5234305;28;20025;-69
2023/06/06 01:45:58;;;;;;;24.17;10.18;;;;;;;12.46;100.00;101972.66;5241396;28;20113;-69
2023/06/06 01:48:29;;;;;;;24.23;11.07;;;;;;;12.45;100.00;101969.13;5244413;28;20028;-69
2023/06/06 01:51:00;;;;;;;25.15;10.07;;;;;;;12.46;100.00;101978.88;5230307;28;20036;-69
2023/06/06 01:53:30;;;;;;;25.20;11.32;;;;;;;12.44;100.00;101975.47;5244482;28;20028;-69
2023/06/06 01:56:01;;;;;;;27.75;10.77;;;;;;;12.41;100.00;101975.81;5243467;28;20029;-69
2023/06/06 01:58:33;;;;;;;25.98;10.98;;;;;;;12.38;100.00;101981.47;5244197;28;20631;-69
2023/06/06 02:01:03;;;;;;;27.15;10.27;;;;;;;12.33;100.00;101987.28;5236047;28;20021;-69
2023/06/06 02:03:36;;;;;;;25.45;10.88;;;;;;;12.34;100.00;101988.13;5225432;28;20033;-69
2023/06/06 02:06:19;;;;;;;28.77;11.00;;;;;;;12.33;100.00;101991.84;5232538;28;20033;-69
2023/06/06 02:08:50;;;;;;;27.92;9.98;;;;;;;12.28;100.00;101984.22;5241937;28;20043;-71
2023/06/06 02:11:23;;;;;;;22.67;10.65;;;;;;;12.25;100.00;101991.72;5226484;28;20040;-69
2023/06/06 02:13:53;;;;;;;22.42;11.55;;;;;;;12.15;100.00;101984.56;5236972;28;20377;-69
2023/06/06 02:16:24;;;;;;;25.38;11.45;;;;;;;12.08;100.00;101988.84;5236351;28;20027;-69
2023/06/06 02:18:56;;;;;;;33.60;10.73;;;;;;;12.03;100.00;102001.88;5224238;28;20017;-69
2023/06/06 02:21:26;;;;;;;21.90;10.65;;;;;;;11.99;100.00;101995.09;5224506;28;20028;-69
2023/06/06 02:23:57;;;;;;;30.10;10.52;;;;;;;11.98;100.00;101993.41;5241717;28;20013;-69
2023/06/06 02:26:28;;;;;;;24.10;11.57;;;;;;;11.95;100.00;101992.84;5243052;28;20032;-69
2023/06/06 02:28:59;;;;;;;25.45;10.63;;;;;;;11.91;100.00;101995.00;5244143;28;20024;-69
2023/06/06 02:31:29;;;;;;;29.20;10.90;;;;;;;11.95;100.00;101996.41;5237561;28;20033;-69
2023/06/06 02:34:00;;;;;;;25.33;11.07;;;;;;;11.97;100.00;102001.63;5237269;28;20424;-69
2023/06/06 02:36:31;;;;;;;28.58;10.93;;;;;;;11.96;100.00;101989.19;5243377;28;20070;-68
2023/06/06 02:39:03;;;;;;;23.48;11.07;;;;;;;11.95;100.00;101995.53;5247862;28;20028;-68
2023/06/06 02:41:34;;;;;;;23.67;10.70;;;;;;;11.90;100.00;101996.00;5248142;28;20024;-69
2023/06/06 02:44:04;;;;;;;23.80;10.95;;;;;;;11.84;100.00;101994.72;5247794;28;20389;-68
2023/06/06 02:46:35;;;;;;;26.90;10.88;;;;;;;11.82;100.00;102001.25;5247635;28;20032;-68
2023/06/06 02:49:07;;;;;;;24.02;10.80;;;;;;;11.77;100.00;102000.81;5212805;28;20474;-68
2023/06/06 02:51:38;;;;;;;28.40;11.00;;;;;;;11.77;100.00;102006.19;5227848;28;20029;-69
2023/06/06 02:54:08;;;;;;;29.17;10.70;;;;;;;11.75;100.00;102002.81;5228864;28;20017;-69
2023/06/06 02:56:39;;;;;;;23.95;9.75;;;;;;;11.71;100.00;102007.63;5227205;28;20031;-69
2023/06/06 02:59:09;;;;;;;26.90;10.88;;;;;;;11.70;100.00;102005.06;5228519;28;20017;-69
2023/06/06 03:01:44;;;;;;;25.38;10.52;;;;;;;11.62;100.00;102003.97;5228032;28;20017;-69
2023/06/06 03:04:15;;;;;;;24.60;9.98;;;;;;;11.64;100.00;102004.66;5227722;28;20029;-69
2023/06/06 03:06:48;;;;;;;28.40;11.88;;;;;;;11.60;100.00;102000.59;5227340;28;20036;-69
2023/06/06 03:09:19;;;;;;;27.33;11.07;;;;;;;11.53;100.00;102002.13;5227630;28;20031;-69
2023/06/06 03:11:49;;;;;;;24.35;10.70;;;;;;;11.47;100.00;102001.88;5227900;28;20482;-69
2023/06/06 03:14:20;;;;;;;24.13;11.20;;;;;;;11.46;100.00;101997.50;5227406;28;20030;-69
2023/06/06 03:16:51;;;;;;;21.05;9.68;;;;;;;11.45;100.00;102003.88;5227239;28;20021;-69
2023/06/06 03:19:23;;;;;;;23.83;10.25;;;;;;;11.44;100.00;102007.53;5227497;28;20025;-69
2023/06/06 03:21:53;;;;;;;23.77;10.57;;;;;;;11.40;100.00;102007.00;5228764;28;20024;-69
2023/06/06 03:24:25;;;;;;;26.17;11.05;;;;;;;11.39;100.00;102003.41;5245948;28;20031;-68
2023/06/06 03:26:56;;;;;;;26.60;11.23;;;;;;;11.39;100.00;102005.25;5225618;28;20033;-68
2023/06/06 03:29:26;;;;;;;20.80;10.57;;;;;;;11.33;100.00;102003.16;5242350;28;20382;-69
2023/06/06 03:31:57;;;;;;;30.30;10.45;;;;;;;11.33;100.00;102001.31;5247150;28;20050;-68
2023/06/06 03:34:27;;;;;;;24.70;10.70;;;;;;;11.31;100.00;102008.69;5247215;28;20021;-69
2023/06/06 03:36:58;;;;;;;22.85;10.05;;;;;;;11.30;100.00;102014.22;5245957;28;20020;-68
2023/06/06 03:39:28;;;;;;;28.33;10.38;;;;;;;11.29;100.00;102009.81;5246863;28;20099;-69
2023/06/06 03:41:59;;;;;;;22.50;9.95;;;;;;;11.29;100.00;102010.66;5234885;28;20147;-68
2023/06/06 03:44:29;;;;;;;23.13;10.98;;;;;;;11.32;100.00;102018.44;5245704;28;20020;-69
2023/06/06 03:47:00;;;;;;;24.52;10.85;;;;;;;11.28;100.00;102016.16;5245953;28;20499;-69
2023/06/06 03:49:36;;;;;;;26.60;10.45;;;;;;;11.28;100.00;102018.84;5246115;28;20103;-69
2023/06/06 03:52:07;;;;;;;20.17;9.98;;;;;;;11.25;100.00;102011.09;5246615;28;20032;-69
2023/06/06 03:54:37;;;;;;;23.67;10.68;;;;;;;11.22;100.00;102012.22;5247059;28;20059;-69
2023/06/06 03:57:10;;;;;;;30.55;11.43;;;;;;;11.21;100.00;102017.75;5214694;28;20032;-69
2023/06/06 03:59:40;;;;;;;26.17;11.10;;;;;;;11.20;100.00;102013.38;5246727;28;20115;-69
2023/06/06 04:02:11;;;;;;;27.27;10.48;;;;;;;11.20;100.00;102008.84;5228454;28;20449;-70
2023/06/06 04:04:42;;;;;;;25.45;11.15;;;;;;;11.19;100.00;102009.81;5226591;28;20024;-70
2023/06/06 04:07:12;;;;;;;21.60;10.05;;;;;;;11.28;100.00;102005.41;5226369;28;20060;-70
2023/06/06 04:09:43;;;;;;;22.08;10.95;;;;;;;11.26;100.00;102004.72;5226372;28;20049;-70
2023/06/06 04:12:13;;;;;;;25.00;10.90;;;;;;;11.26;100.00;102007.41;5226972;28;20036;-70
2023/06/06 04:14:44;;;;;;;25.02;10.93;;;;;;;11.27;100.00;102011.78;5226857;28;20025;-70
2023/06/06 04:17:14;;;;;;;22.55;10.35;;;;;;;11.28;100.00;102008.94;5225751;28;20036;-71
2023/06/06 04:19:47;;;;;;;26.70;10.48;;;;;;;11.29;100.00;102009.81;5226813;28;20524;-71
2023/06/06 04:22:20;;;;;;;27.00;11.65;;;;;;;11.33;100.00;102012.06;5230563;28;20024;-71
2023/06/06 04:24:50;;;;;;;23.02;10.25;;;;;;;11.34;100.00;102013.75;5232504;28;20504;-69
2023/06/06 04:27:23;;;;;;;24.85;10.25;;;;;;;11.39;100.00;102008.78;5245347;28;20070;-69
2023/06/06 04:29:57;;;;;;;27.67;10.48;;;;;;;11.42;100.00;102013.06;5239592;28;20044;-69
2023/06/06 04:32:29;;;;;;;29.17;10.65;;;;;;;11.44;100.00;102010.22;5239418;28;20025;-69
2023/06/06 04:34:59;;;;;;;29.77;10.85;;;;;;;11.46;100.00;102014.47;5237797;28;20033;-69
2023/06/06 04:37:32;;;;;;;22.73;10.90;;;;;;;11.51;100.00;102008.66;5225668;28;20482;-68
2023/06/06 04:40:05;;;;;;;30.13;10.68;;;;;;;11.49;100.00;102016.00;5226062;28;20059;-69
2023/06/06 04:42:36;;;;;;;25.35;11.70;;;;;;;11.57;100.00;102014.31;5226534;28;20568;-69
2023/06/06 04:45:07;;;;;;;27.02;10.98;;;;;;;11.63;100.00;102008.34;5225923;28;20021;-69
2023/06/06 04:47:40;;;;;;;24.73;11.18;;;;;;;11.63;100.00;102011.03;5226731;28;20096;-69
2023/06/06 04:50:11;;;;;;;22.73;11.23;;;;;;;11.67;100.00;102015.13;5225284;28;20048;-69
2023/06/06 04:52:41;;;;;;;27.33;11.45;;;;;;;11.72;100.00;102008.47;5225961;28;20027;-68
2023/06/06 04:55:12;;;;;;;21.85;10.50;;;;;;;11.81;100.00;102015.66;5225934;28;20043;-68
2023/06/06 04:57:44;;;;;;;26.88;10.63;;;;;;;11.84;100.00;102010.84;5224837;28;20028;-68
2023/06/06 05:00:16;;;;;;;26.50;12.23;;;;;;;11.89;100.00;102013.94;5224835;28;20051;-68
2023/06/06 05:02:48;;;;;;;28.45;11.52;;;;;;;11.92;100.00;102016.38;5225164;28;20068;-68
2023/06/06 05:05:19;;;;;;;21.25;9.75;;;;;;;11.98;100.00;102008.69;5225712;28;20086;-69
2023/06/06 05:07:49;;;;;;;20.23;10.70;;;;;;;12.02;100.00;102013.63;5233209;28;20020;-68
2023/06/06 05:10:20;;;;;;;22.88;11.13;;;;;;;12.09;100.00;102017.41;5223366;28;20028;-69
2023/06/06 05:12:50;;;;;;;26.45;12.07;;;;;;;12.15;100.00;102014.16;5232986;28;20025;-69
2023/06/06 05:15:21;;;;;;;25.98;12.43;;;;;;;12.23;100.00;102020.63;5233010;28;20378;-69
2023/06/06 05:18:10;;;;;;;23.70;11.20;;;;;;;12.27;100.00;102014.81;5239046;28;20025;-68
2023/06/06 05:20:41;;;;;;;29.50;12.40;;;;;;;12.30;100.00;102021.72;5225189;28;20080;-69
2023/06/06 05:23:12;;;;;;;28.17;11.63;;;;;;;12.38;100.00;102022.69;5236625;28;20438;-69
2023/06/06 05:25:42;;;;;;;24.73;10.88;;;;;;;12.54;100.00;102024.72;5244360;28;20494;-68
2023/06/06 05:28:13;;;;;;;25.63;10.95;;;;;;;12.62;100.00;102027.50;5244606;28;20036;-69
2023/06/06 05:30:43;;;;;;;21.50;10.88;;;;;;;12.72;100.00;102026.59;5245036;28;20024;-69
2023/06/06 05:33:14;;;;;;;24.98;11.85;;;;;;;12.76;100.00;102026.16;5244780;28;20024;-69
2023/06/06 05:35:47;;;;;;;28.17;11.48;;;;;;;12.86;100.00;102031.47;5243918;28;20469;-69
2023/06/06 05:38:18;;;;;;;20.98;11.40;;;;;;;12.97;100.00;102028.56;5244719;28;20675;-69
2023/06/06 05:40:48;;;;;;;24.23;11.15;;;;;;;13.04;100.00;102026.09;5231433;28;20036;-69
2023/06/06 05:43:19;;;;;;;24.10;10.38;;;;;;;13.13;100.00;102035.94;5244823;28;20371;-69
2023/06/06 05:45:50;;;;;;;23.98;10.77;;;;;;;13.23;100.00;102035.91;5244066;28;20031;-69
2023/06/06 05:48:20;;;;;;;21.23;10.82;;;;;;;13.36;100.00;102034.50;5244014;28;20054;-69
2023/06/06 05:50:51;;;;;;;22.15;10.00;;;;;;;13.49;100.00;102039.47;5239312;28;20040;-69
2023/06/06 05:53:23;;;;;;;25.17;11.90;;;;;;;13.56;100.00;102040.56;5236777;28;20558;-69
2023/06/06 05:55:53;;;;;;;20.75;10.25;;;;;;;13.65;100.00;102033.38;5244123;28;20052;-69
2023/06/06 05:58:24;;;;;;;17.90;9.50;;;;;;;13.95;100.00;102032.88;5244337;28;20477;-69
2023/06/06 06:00:55;;;;;;;18.50;10.10;;;;;;;14.53;100.00;102033.22;5244297;28;20048;-69
2023/06/06 06:03:26;;;;;;;21.90;10.95;;;;;;;15.13;100.00;102017.63;5244280;28;20032;-69
2023/06/06 06:06:02;;;;;;;21.52;10.52;;;;;;;15.78;100.00;102023.06;5243639;28;20052;-69
2023/06/06 06:08:34;;;;;;;23.10;10.88;;;;;;;16.33;100.00;102025.94;5244330;28;20095;-69
2023/06/06 06:11:07;;;;;;;22.33;10.52;;;;;;;16.79;100.00;102029.63;5244034;28;20064;-69
2023/06/06 06:13:38;;;;;;;18.38;8.93;;;;;;;17.54;100.00;102032.44;5229722;28;20028;-69
2023/06/06 06:16:08;;;;;;;21.98;9.80;;;;;;;17.70;100.00;102030.63;5237588;28;20115;-69
2023/06/06 06:18:39;;;;;;;20.48;10.65;;;;;;;18.19;100.00;102028.25;5221875;28;20017;-69
2023/06/06 06:21:09;;;;;;;20.25;9.73;;;;;;;18.44;100.00;102042.38;5226797;28;20047;-69
2023/06/06 06:23:40;;;;;;;20.00;10.35;;;;;;;18.60;100.00;102035.88;5237898;28;20022;-69
2023/06/06 06:26:10;;;;;;;19.00;9.15;;;;;;;18.79;100.00;102040.75;5242199;28;21666;-69
2023/06/06 06:28:41;;;;;;;20.85;10.13;;;;;;;19.15;100.00;102038.00;5224901;28;20363;-70
2023/06/06 06:31:12;;;;;;;16.83;10.05;;;;;;;19.05;100.00;102044.78;5242627;28;20017;-69
2023/06/06 06:33:42;;;;;;;17.13;9.45;;;;;;;19.12;100.00;102042.97;5242522;28;20135;-70
2023/06/06 06:36:13;;;;;;;17.02;8.88;;;;;;;19.37;100.00;102040.69;5241808;28;20377;-69
2023/06/06 06:38:43;;;;;;;17.30;9.63;;;;;;;19.78;100.00;102042.75;5242291;28;20019;-70
2023/06/06 06:41:14;;;;;;;21.40;10.25;;;;;;;20.04;100.00;102042.09;5242460;28;20390;-69
2023/06/06 06:43:44;;;;;;;15.80;8.52;;;;;;;20.41;100.00;102044.41;5242499;28;20037;-69
2023/06/06 06:46:15;;;;;;;13.52;8.98;;;;;;;20.17;100.00;102036.72;5242310;28;20017;-69
2023/06/06 06:48:45;;;;;;;13.90;8.80;;;;;;;20.48;100.00;102043.59;5241688;28;20443;-69
2023/06/06 06:51:16;;;;;;;16.13;10.10;;;;;;;20.27;100.00;102045.38;5242931;28;20025;-69
2023/06/06 06:53:49;;;;;;;15.07;9.50;;;;;;;20.58;100.00;102046.78;5242829;28;20036;-69
2023/06/06 06:56:19;;;;;;;15.80;9.50;;;;;;;20.40;100.00;102050.06;5231538;28;20682;-70
2023/06/06 06:58:50;;;;;;;20.15;10.02;;;;;;;20.49;100.00;102048.88;5207901;28;20070;-70
2023/06/06 07:01:27;;;;;;;18.25;9.90;;;;;;;20.71;100.00;102046.88;5241958;28;20578;-69
2023/06/06 07:03:57;;;;;;;20.95;10.27;;;;;;;20.89;100.00;102057.22;5228980;28;20386;-70
2023/06/06 07:06:32;;;;;;;13.15;8.82;;;;;;;21.31;100.00;102050.59;5242042;28;20028;-70
2023/06/06 07:09:04;;;;;;;17.73;9.85;;;;;;;21.19;100.00;102039.44;5233474;28;20056;-70
2023/06/06 07:11:34;;;;;;;15.13;9.68;;;;;;;21.73;100.00;102048.50;5237297;28;20509;-70
2023/06/06 07:14:05;;;;;;;15.13;9.00;;;;;;;21.49;100.00;102030.03;5242098;28;20025;-70
2023/06/06 07:16:36;;;;;;;15.13;8.68;;;;;;;21.50;100.00;102037.19;5241625;28;20021;-70
2023/06/06 07:19:07;;;;;;;16.23;9.50;;;;;;;21.60;100.00;102032.16;5241990;28;20016;-70
2023/06/06 07:21:37;;;;;;;14.52;8.88;;;;;;;21.92;100.00;102044.91;5228815;28;20024;-71
2023/06/06 07:24:08;;;;;;;15.07;9.18;;;;;;;22.07;100.00;102041.94;5236895;28;20029;-70
2023/06/06 07:26:38;;;;;;;14.02;8.80;;;;;;;22.29;100.00;102037.09;5244983;28;20103;-70
2023/06/06 07:29:09;;;;;;;19.23;8.38;;;;;;;22.59;100.00;102033.81;5231879;28;20029;-71
2023/06/06 07:31:40;;;;;;;18.05;9.02;;;;;;;23.25;100.00;102030.72;5245687;28;20466;-70
2023/06/06 07:34:10;;;;;;;17.38;9.13;;;;;;;22.87;100.00;102033.47;5245542;28;20107;-70
2023/06/06 07:36:41;;;;;;;14.57;8.52;;;;;;;23.13;100.00;102030.59;5244703;28;20091;-70
2023/06/06 07:39:12;;;;;;;19.73;10.27;;;;;;;22.66;100.00;102032.72;5245124;28;20032;-70
2023/06/06 07:41:42;;;;;;;15.05;9.73;;;;;;;22.86;100.00;102029.06;5227569;28;20024;-70
2023/06/06 07:44:16;;;;;;;16.90;8.77;;;;;;;22.79;100.00;102023.59;5245387;28;20028;-70
2023/06/06 07:46:47;;;;;;;17.35;9.30;;;;;;;22.85;100.00;102030.13;5244322;28;20476;-70
2023/06/06 07:49:17;;;;;;;18.67;9.73;;;;;;;22.89;100.00;102024.03;5220351;28;20064;-71
2023/06/06 07:51:48;;;;;;;13.70;8.90;;;;;;;23.17;100.00;102023.59;5238011;28;20021;-71
2023/06/06 07:54:19;;;;;;;15.73;8.40;;;;;;;23.83;100.00;102018.66;5232712;28;20658;-71
2023/06/06 07:56:49;;;;;;;19.90;9.90;;;;;;;23.60;100.00;102027.50;5244508;28;20017;-71
2023/06/06 07:59:21;;;;;;;21.13;10.38;;;;;;;23.82;100.00;102020.56;5245060;28;20024;-71
2023/06/06 08:01:52;;;;;;;20.13;9.38;;;;;;;24.03;100.00;102022.03;5244700;28;21295;-71
2023/06/06 08:04:22;;;;;;;19.13;9.25;;;;;;;24.89;100.00;102017.38;5245357;28;20028;-71
2023/06/06 08:06:53;;;;;;;17.13;9.30;;;;;;;24.21;100.00;102018.47;5244480;28;20028;-71
2023/06/06 08:09:24;;;;;;;18.65;10.18;;;;;;;23.91;100.00;102015.63;5244740;28;20055;-71
2023/06/06 08:11:54;;;;;;;16.42;9.88;;;;;;;23.96;100.00;102015.78;5244936;28;20025;-71
2023/06/06 08:14:25;;;;;;;16.88;9.05;;;;;;;24.11;100.00;102023.66;5244828;28;20113;-71
2023/06/06 08:16:56;;;;;;;20.15;9.82;;;;;;;25.02;100.00;102025.44;5237951;28;20025;-71
2023/06/06 08:19:26;;;;;;;14.85;9.50;;;;;;;24.83;100.00;102021.91;5223810;28;20024;-71
2023/06/06 08:21:57;;;;;;;15.40;9.50;;;;;;;24.35;100.00;102022.72;5234271;28;20100;-71
2023/06/06 08:24:28;;;;;;;17.10;9.35;;;;;;;24.54;100.00;102024.41;5237175;28;20031;-71
2023/06/06 08:27:00;;;;;;;16.52;9.90;;;;;;;24.25;100.00;102025.19;5232850;28;20028;-70
2023/06/06 08:29:31;;;;;;;19.35;9.68;;;;;;;24.28;100.00;102017.31;5240864;28;20029;-71
2023/06/06 08:32:02;;;;;;;13.80;8.70;;;;;;;24.94;100.00;102017.53;5234722;28;20031;-71
2023/06/06 08:34:35;;;;;;;16.55;9.43;;;;;;;25.11;100.00;102025.97;5231300;28;20031;-71
2023/06/06 08:37:06;;;;;;;14.27;8.82;;;;;;;25.33;100.00;102016.09;5243519;28;20028;-71
2023/06/06 08:39:36;;;;;;;19.08;10.50;;;;;;;24.36;100.00;102010.72;5237408;28;20371;-71
2023/06/06 08:42:09;;;;;;;25.40;10.75;;;;;;;24.13;100.00;102005.06;5237390;28;20028;-71
2023/06/06 08:44:41;;;;;;;20.38;9.80;;;;;;;24.48;100.00;102011.59;5231612;28;20035;-71
2023/06/06 08:47:13;;;;;;;18.77;9.25;;;;;;;25.12;100.00;102012.00;5243804;28;20797;-71
2023/06/06 08:49:43;;;;;;;16.67;9.43;;;;;;;25.04;100.00;102004.06;5243510;28;20031;-71
2023/06/06 08:52:15;;;;;;;19.75;10.10;;;;;;;24.78;100.00;102006.13;5244164;28;20024;-71
2023/06/06 08:54:50;;;;;;;18.60;10.35;;;;;;;25.05;100.00;102005.72;5244223;28;20666;-71
2023/06/06 08:57:22;;;;;;;14.52;8.15;;;;;;;25.23;100.00;102005.69;5225493;28;20102;-71
2023/06/06 08:59:53;;;;;;;15.60;9.63;;;;;;;25.77;100.00;102000.16;5243216;28;20043;-71
2023/06/06 09:02:25;;;;;;;21.92;9.73;;;;;;;25.01;100.00;102005.38;5243589;28;20012;-71
2023/06/06 09:04:56;;;;;;;17.88;10.07;;;;;;;24.97;100.00;102000.59;5243709;28;20107;-71
2023/06/06 09:07:28;;;;;;;16.38;10.60;;;;;;;25.18;100.00;102005.56;5242910;28;20028;-71
2023/06/06 09:09:58;;;;;;;16.70;10.15;;;;;;;25.73;100.00;101997.00;5240153;28;20509;-71
2023/06/06 09:12:29;;;;;;;18.50;10.63;;;;;;;25.82;100.00;102003.84;5232561;28;20108;-71
2023/06/06 09:14:59;;;;;;;14.20;8.88;;;;;;;26.43;100.00;102009.03;5243046;28;20025;-71
2023/06/06 09:17:35;;;;;;;15.73;9.77;;;;;;;25.83;100.00;102007.44;5242614;28;20024;-71
2023/06/06 09:20:08;;;;;;;19.67;9.88;;;;;;;25.29;100.00;102001.16;5241840;28;20047;-71
2023/06/06 09:22:41;;;;;;;14.38;9.57;;;;;;;25.43;100.00;102001.78;5229990;28;20543;-71
2023/06/06 09:25:24;;;;;;;18.88;10.43;;;;;;;25.63;100.00;102001.44;5242651;28;20108;-71
2023/06/06 09:28:11;;;;;;;16.13;9.43;;;;;;;25.83;100.00;101993.69;5228855;28;20104;-71
2023/06/06 09:30:41;;;;;;;18.80;9.27;;;;;;;25.28;100.00;101988.50;5229445;28;20031;-71
2023/06/06 09:33:14;;;;;;;16.98;9.63;;;;;;;25.49;100.00;101990.69;5235467;28;20024;-71
2023/06/06 09:35:44;;;;;;;19.42;9.63;;;;;;;25.67;100.00;101994.41;5235863;28;20028;-71
2023/06/06 09:38:16;;;;;;;15.98;9.60;;;;;;;25.78;100.00;101990.84;5242255;28;20474;-71
2023/06/06 09:40:50;;;;;;;18.10;9.60;;;;;;;26.16;100.00;101995.81;5240919;28;20026;-72
2023/06/06 09:43:37;;;;;;;19.38;9.98;;;;;;;25.76;100.00;101993.00;5241378;28;20107;-71
2023/06/06 09:46:08;;;;;;;22.33;10.40;;;;;;;25.58;100.00;101985.66;5241390;28;20482;-71
2023/06/06 09:48:38;;;;;;;14.65;9.70;;;;;;;25.89;100.00;101987.22;5247591;28;20078;-72
2023/06/06 09:51:11;;;;;;;20.33;9.48;;;;;;;26.31;100.00;101993.38;5244279;28;20023;-72
2023/06/06 09:53:50;;;;;;;17.92;10.30;;;;;;;26.32;100.00;101984.03;5245983;28;20032;-71
2023/06/06 09:56:22;;;;;;;17.55;10.75;;;;;;;26.49;100.00;101986.88;5248374;28;20481;-73
2023/06/06 09:58:55;;;;;;;18.52;9.95;;;;;;;26.52;100.00;101989.16;5250366;28;20385;-71
2023/06/06 10:01:28;;;;;;;17.00;9.18;;;;;;;26.75;100.00;101984.59;5253370;28;20008;-72
2023/06/06 10:03:59;;;;;;;16.63;9.45;;;;;;;26.70;100.00;101981.75;5241902;28;20025;-72
2023/06/06 10:09:22;;;;;;;17.15;9.23;;;;;;;26.94;100.00;101985.22;5250886;28;20031;-72
2023/06/06 10:11:53;;;;;;;19.98;10.38;;;;;;;26.74;100.00;101978.28;5244537;28;20511;-72
2023/06/06 10:14:23;;;;;;;16.50;9.85;;;;;;;26.08;100.00;101976.94;5247842;28;20073;-72
2023/06/06 10:16:54;;;;;;;18.52;9.35;;;;;;;25.75;100.00;101974.81;5242567;28;20028;-72
2023/06/06 10:19:25;;;;;;;14.95;8.85;;;;;;;25.73;100.00;101964.03;5246369;28;20031;-71
2023/06/06 10:21:56;;;;;;;18.90;9.85;;;;;;;25.83;100.00;101968.97;5244955;28;20013;-72
2023/06/06 10:24:28;;;;;;;20.23;10.23;;;;;;;25.74;100.00;101973.94;5240532;28;20027;-72
2023/06/06 10:27:10;;;;;;;21.30;9.82;;;;;;;26.16;100.00;101971.06;5243400;28;20037;-72
2023/06/06 10:30:15;;;;;;;15.85;10.32;;;;;;;26.53;100.00;101963.28;5239658;28;20086;-72
2023/06/06 10:33:26;;;;;;;16.08;9.52;;;;;;;26.69;100.00;101966.34;5239831;28;20405;-72
2023/06/06 10:36:03;;;;;;;13.52;8.68;;;;;;;26.84;100.00;101972.13;5242074;28;20126;-72
2023/06/06 10:38:35;;;;;;;16.45;9.05;;;;;;;26.68;100.00;101972.94;5239949;28;20017;-72
2023/06/06 10:41:16;;;;;;;15.18;9.05;;;;;;;26.69;100.00;101974.59;5229667;28;20074;-72
2023/06/06 10:43:46;;;;;;;14.10;8.52;;;;;;;26.89;100.00;101969.44;5240513;28;20024;-71
2023/06/06 10:46:17;;;;;;;20.70;8.40;;;;;;;26.98;100.00;101959.72;5228438;28;20020;-72
2023/06/06 10:49:06;;;;;;;12.48;8.25;;;;;;;26.63;100.00;101962.66;5232058;28;20024;-72
2023/06/06 10:51:39;;;;;;;14.00;8.90;;;;;;;26.10;100.00;101958.25;5237719;28;20020;-71
2023/06/06 10:54:27;;;;;;;17.35;9.32;;;;;;;26.34;100.00;101959.03;5235143;28;20028;-71
2023/06/06 10:56:59;;;;;;;19.60;8.85;;;;;;;26.45;100.00;101963.69;5239019;28;20024;-72
2023/06/06 10:59:32;;;;;;;15.20;8.00;;;;;;;26.63;100.00;101961.81;5241739;28;20040;-72
2023/06/06 11:02:11;;;;;;;14.23;8.43;;;;;;;26.77;100.00;101957.69;5253608;28;20029;-72
2023/06/06 11:04:42;;;;;;;15.45;9.02;;;;;;;26.80;100.00;101957.16;5238861;28;20028;-72
2023/06/06 11:07:31;;;;;;;16.13;8.65;;;;;;;26.46;100.00;101951.63;5237920;28;20020;-72
2023/06/06 11:10:02;;;;;;;17.75;9.15;;;;;;;26.40;100.00;101946.19;5236814;28;20032;-72
2023/06/06 11:12:33;;;;;;;13.75;8.30;;;;;;;25.85;100.00;101942.06;5236754;28;20082;-72
2023/06/06 11:15:05;;;;;;;16.42;8.20;;;;;;;25.48;100.00;101942.31;5245315;28;20022;-71
2023/06/06 11:20:40;;;;;;;22.52;9.52;;;;;;;26.11;100.00;101937.13;5243798;28;20390;-71
2023/06/06 11:23:11;;;;;;;16.65;8.30;;;;;;;26.32;100.00;101936.44;5223516;28;21540;-72
2023/06/06 11:25:42;;;;;;;14.38;8.18;;;;;;;26.46;100.00;101926.84;5244108;28;20027;-71
2023/06/06 11:28:13;;;;;;;13.13;7.55;;;;;;;26.74;100.00;101927.88;5244167;28;20505;-72
2023/06/06 11:30:45;;;;;;;17.63;8.65;;;;;;;26.81;100.00;101923.91;5244678;28;20025;-72
2023/06/06 11:33:16;;;;;;;19.67;8.60;;;;;;;26.84;100.00;101930.81;5244098;28;20028;-72